Time;durP1;ratioP1;P1;durP2;ratioP2;P2;SDS_P1;SDS_P2;PMS_P1;PMS_P2;Temp;Humidity;BMP_temperature;BMP_pressure;BME280_temperature;BME280_humidity;BME280_pressure;Samples;Min_cycle;Max_cycle;Signal;HPM_P1;HPM_P2
2022/12/07 00:00:26;;;;;;;28.10;14.55;;;;;;;2.24;100.00;101215.16;2063627;28;26149;-72
2022/12/07 00:01:31;;;;;;;32.50;14.85;;;;;;;2.26;100.00;101205.50;2071350;28;35308;-72
2022/12/07 00:02:32;;;;;;;29.00;14.82;;;;;;;2.23;100.00;101208.06;2063402;28;20038;-71
2022/12/07 00:03:36;;;;;;;32.22;14.43;;;;;;;2.20;100.00;101208.00;2063707;28;36898;-72
2022/12/07 00:04:38;;;;;;;30.40;14.77;;;;;;;2.20;100.00;101205.38;2071664;28;30585;-72
2022/12/07 00:05:39;;;;;;;29.33;14.43;;;;;;;2.19;100.00;101206.25;2071812;28;37468;-71
2022/12/07 00:06:45;;;;;;;28.55;14.32;;;;;;;2.19;100.00;101205.34;2071775;28;30426;-72
2022/12/07 00:07:47;;;;;;;32.40;14.52;;;;;;;2.14;100.00;101213.22;2071977;28;33954;-72
2022/12/07 00:08:49;;;;;;;25.83;12.70;;;;;;;2.05;100.00;101203.38;2071405;28;38396;-71
2022/12/07 00:09:50;;;;;;;33.00;14.38;;;;;;;2.06;100.00;101199.91;2072133;28;30626;-72
2022/12/07 00:10:52;;;;;;;26.73;12.77;;;;;;;2.03;100.00;101205.13;2071554;28;30293;-72
2022/12/07 00:11:54;;;;;;;25.83;12.70;;;;;;;1.99;100.00;101211.22;2063122;28;36838;-71
2022/12/07 00:12:56;;;;;;;27.30;13.50;;;;;;;1.99;100.00;101212.94;2062899;28;34921;-71
2022/12/07 00:14:01;;;;;;;27.67;12.70;;;;;;;1.99;100.00;101207.66;2072077;28;30088;-71
2022/12/07 00:15:03;;;;;;;26.35;11.77;;;;;;;1.99;100.00;101205.03;2071629;28;33787;-72
2022/12/07 00:16:10;;;;;;;27.50;12.75;;;;;;;1.95;100.00;101206.72;2072105;28;29577;-72
2022/12/07 00:17:11;;;;;;;29.92;12.82;;;;;;;1.96;100.00;101216.44;2071661;28;32065;-72
2022/12/07 00:18:13;;;;;;;28.83;12.13;;;;;;;1.94;100.00;101210.25;2071905;28;31237;-72
2022/12/07 00:19:15;;;;;;;27.60;11.75;;;;;;;1.95;100.00;101212.00;2072866;28;20038;-72
2022/12/07 00:20:16;;;;;;;27.45;11.75;;;;;;;1.95;100.00;101208.50;2071760;28;36331;-72
2022/12/07 00:21:22;;;;;;;24.55;11.27;;;;;;;1.96;100.00;101210.28;2062970;28;33262;-72
2022/12/07 00:22:26;;;;;;;25.63;12.23;;;;;;;1.97;100.00;101225.25;2064017;28;30823;-72
2022/12/07 00:23:28;;;;;;;23.73;11.07;;;;;;;1.99;100.00;101223.50;2070767;28;40908;-72
2022/12/07 00:24:30;;;;;;;23.90;11.35;;;;;;;1.97;100.00;101223.47;2072429;28;20030;-72
2022/12/07 00:25:32;;;;;;;28.20;10.50;;;;;;;1.96;100.00;101219.09;2071161;28;40998;-72
2022/12/07 00:26:37;;;;;;;26.40;11.30;;;;;;;1.93;100.00;101216.38;2072019;28;34856;-72
2022/12/07 00:27:40;;;;;;;21.52;10.10;;;;;;;1.91;100.00;101219.00;2071406;28;20042;-74
2022/12/07 00:28:46;;;;;;;19.42;10.05;;;;;;;1.87;100.00;101219.81;2071443;28;20042;-72
2022/12/07 00:29:48;;;;;;;22.75;9.23;;;;;;;1.85;100.00;101220.66;2062765;28;34615;-72
2022/12/07 00:30:50;;;;;;;21.23;8.85;;;;;;;1.80;100.00;101217.06;2064120;28;31012;-72
2022/12/07 00:31:51;;;;;;;23.05;9.13;;;;;;;1.76;100.00;101209.91;2071178;28;34808;-71
2022/12/07 00:32:53;;;;;;;20.25;9.18;;;;;;;1.76;100.00;101224.03;2071719;28;20107;-71
2022/12/07 00:33:55;;;;;;;20.10;8.98;;;;;;;1.75;100.00;101218.72;2070678;28;40055;-71
2022/12/07 00:34:59;;;;;;;15.15;7.75;;;;;;;1.70;100.00;101216.88;2063774;28;20035;-71
2022/12/07 00:36:06;;;;;;;19.10;8.90;;;;;;;1.72;100.00;101216.91;2064027;28;20046;-72
2022/12/07 00:37:08;;;;;;;16.48;8.95;;;;;;;1.71;100.00;101215.13;2071519;28;38991;-71
2022/12/07 00:38:09;;;;;;;19.52;8.43;;;;;;;1.71;100.00;101207.22;2071824;28;27007;-72
2022/12/07 00:39:11;;;;;;;16.52;8.15;;;;;;;1.70;100.00;101203.66;2071618;28;37579;-71
2022/12/07 00:40:13;;;;;;;16.20;7.50;;;;;;;1.71;100.00;101204.56;2071044;28;39127;-71
2022/12/07 00:41:21;;;;;;;17.30;8.05;;;;;;;1.67;100.00;101215.91;2071906;28;32117;-71
2022/12/07 00:42:23;;;;;;;15.90;7.25;;;;;;;1.64;100.00;101213.25;2071624;28;32202;-73
2022/12/07 00:43:26;;;;;;;16.02;7.43;;;;;;;1.66;100.00;101215.03;2071745;28;36196;-72
2022/12/07 00:44:27;;;;;;;17.05;7.68;;;;;;;1.64;100.00;101211.50;2062415;28;31470;-72
2022/12/07 00:45:29;;;;;;;18.15;7.55;;;;;;;1.67;100.00;101210.63;2063386;28;30976;-71
2022/12/07 00:46:31;;;;;;;16.15;7.20;;;;;;;1.62;100.00;101213.22;2071163;28;38028;-72
2022/12/07 00:47:33;;;;;;;16.98;6.63;;;;;;;1.59;100.00;101207.88;2070675;28;35489;-72
2022/12/07 00:48:35;;;;;;;15.18;6.35;;;;;;;1.57;100.00;101203.44;2070880;28;33347;-71
2022/12/07 00:49:36;;;;;;;13.75;6.40;;;;;;;1.54;100.00;101209.53;2071821;28;30890;-72
2022/12/07 00:50:38;;;;;;;16.58;6.50;;;;;;;1.54;100.00;101212.19;2070313;28;36363;-72
2022/12/07 00:51:42;;;;;;;14.80;5.97;;;;;;;1.51;100.00;101205.09;2070921;28;36625;-72
2022/12/07 00:52:43;;;;;;;15.85;6.07;;;;;;;1.50;100.00;101203.31;2071349;28;37295;-71
2022/12/07 00:53:48;;;;;;;14.60;6.00;;;;;;;1.49;100.00;101209.47;2063407;28;20035;-71
2022/12/07 00:54:50;;;;;;;13.35;5.40;;;;;;;1.45;100.00;101201.47;2063929;28;20341;-71
2022/12/07 00:55:52;;;;;;;15.82;5.90;;;;;;;1.44;100.00;101204.97;2071772;28;31581;-71
2022/12/07 00:56:54;;;;;;;18.77;5.45;;;;;;;1.47;100.00;101202.38;2062801;28;31388;-71
2022/12/07 00:57:55;;;;;;;15.65;5.80;;;;;;;1.43;100.00;101196.16;2063835;28;20039;-71
2022/12/07 00:59:02;;;;;;;15.80;5.95;;;;;;;1.51;100.00;101197.19;2070748;28;33092;-73
2022/12/07 01:00:07;;;;;;;13.90;5.72;;;;;;;1.53;100.00;101206.00;2072276;28;23386;-72
2022/12/07 01:01:12;;;;;;;16.98;5.65;;;;;;;1.56;100.00;101206.94;2071685;28;29631;-72
2022/12/07 01:02:13;;;;;;;16.48;5.65;;;;;;;1.57;100.00;101198.16;2071389;28;30791;-71
2022/12/07 01:03:16;;;;;;;16.67;5.88;;;;;;;1.57;100.00;101201.69;2071957;28;20042;-71
2022/12/07 01:04:18;;;;;;;13.75;5.15;;;;;;;1.59;100.00;101201.72;2071839;28;32254;-72
2022/12/07 01:05:22;;;;;;;13.50;5.07;;;;;;;1.60;100.00;101200.84;2071019;28;34524;-72
2022/12/07 01:06:25;;;;;;;16.48;5.38;;;;;;;1.58;100.00;101194.66;2071757;28;32061;-72
2022/12/07 01:07:27;;;;;;;15.50;5.13;;;;;;;1.56;100.00;101194.63;2062330;28;37019;-71
2022/12/07 01:08:29;;;;;;;16.73;5.32;;;;;;;1.56;100.00;101196.38;2062997;28;36077;-71
2022/12/07 01:09:31;;;;;;;16.25;5.40;;;;;;;1.53;100.00;101187.53;2071503;28;28352;-71
2022/12/07 01:10:32;;;;;;;14.30;5.88;;;;;;;1.50;100.00;101187.47;2071584;28;34085;-72
2022/12/07 01:11:34;;;;;;;13.68;5.15;;;;;;;1.45;100.00;101193.53;2072195;28;20670;-71
2022/12/07 01:12:36;;;;;;;15.13;5.28;;;;;;;1.45;100.00;101196.19;2071187;28;38195;-72
2022/12/07 01:13:37;;;;;;;14.52;5.43;;;;;;;1.43;100.00;101193.50;2070966;28;36096;-71
2022/12/07 01:14:41;;;;;;;14.63;5.30;;;;;;;1.41;100.00;101197.88;2072528;28;27999;-71
2022/12/07 01:15:44;;;;;;;15.32;5.32;;;;;;;1.35;100.00;101192.50;2062014;28;38640;-72
2022/12/07 01:16:46;;;;;;;12.93;5.53;;;;;;;1.31;100.00;101195.91;2064093;28;20046;-72
2022/12/07 01:17:48;;;;;;;13.90;5.63;;;;;;;1.28;100.00;101191.47;2062071;28;33604;-71
2022/12/07 01:18:53;;;;;;;16.73;6.10;;;;;;;1.27;100.00;101192.31;2063029;28;37446;-71
2022/12/07 01:19:55;;;;;;;21.27;5.70;;;;;;;1.30;100.00;101188.88;2055263;28;20841;-71
2022/12/07 01:21:25;;;;;;;17.23;5.90;;;;;;;1.27;100.00;101196.72;2055396;28;38269;-71
2022/12/07 01:22:27;;;;;;;17.85;5.55;;;;;;;1.23;100.00;101192.25;2072186;28;20038;-71
2022/12/07 01:23:33;;;;;;;18.40;6.88;;;;;;;1.25;100.00;101191.41;2071298;28;34162;-71
2022/12/07 01:24:34;;;;;;;16.88;5.63;;;;;;;1.23;100.00;101193.13;2071446;28;29498;-72
2022/12/07 01:25:36;;;;;;;16.98;6.68;;;;;;;1.26;100.00;101195.84;2071632;28;27027;-71
2022/12/07 01:26:38;;;;;;;18.00;6.90;;;;;;;1.19;100.00;101195.69;2071431;28;35142;-72
2022/12/07 01:27:39;;;;;;;18.33;6.50;;;;;;;1.14;100.00;101185.94;2071289;28;36940;-71
2022/12/07 01:28:42;;;;;;;19.65;6.75;;;;;;;1.15;100.00;101192.13;2071615;28;29249;-71
2022/12/07 01:29:43;;;;;;;20.05;7.13;;;;;;;1.14;100.00;101190.31;2071203;28;31995;-71
2022/12/07 01:30:59;;;;;;;19.63;7.82;;;;;;;1.19;100.00;101193.06;2062903;28;31608;-71
2022/12/07 01:32:04;;;;;;;16.98;6.82;;;;;;;1.11;100.00;101191.16;2065748;28;20035;-71
2022/12/07 01:33:06;;;;;;;22.75;7.43;;;;;;;1.17;100.00;101194.75;2071384;28;35206;-71
2022/12/07 01:34:10;;;;;;;19.95;7.10;;;;;;;1.14;100.00;101185.94;2071281;28;35179;-71
2022/12/07 01:35:13;;;;;;;17.92;6.97;;;;;;;1.12;100.00;101185.00;2062603;28;32205;-71
2022/12/07 01:36:28;;;;;;;18.58;7.03;;;;;;;1.13;100.00;101186.81;2063512;28;20047;-71
2022/12/07 01:37:38;;;;;;;19.35;7.22;;;;;;;1.11;100.00;101188.53;2071714;28;33115;-71
2022/12/07 01:38:40;;;;;;;19.85;7.00;;;;;;;1.11;100.00;101193.81;2071399;28;34212;-71
2022/12/07 01:39:42;;;;;;;19.20;7.15;;;;;;;1.14;100.00;101193.84;2062632;28;34959;-70
2022/12/07 01:40:44;;;;;;;17.50;7.18;;;;;;;1.19;100.00;101199.22;2062523;28;32009;-71
2022/12/07 01:41:46;;;;;;;18.35;6.95;;;;;;;1.21;100.00;101204.53;2071423;28;33961;-71
2022/12/07 01:42:47;;;;;;;20.35;8.02;;;;;;;1.24;100.00;101205.47;2070958;28;32153;-71
2022/12/07 01:44:32;;;;;;;22.80;7.63;;;;;;;1.29;100.00;101214.38;2071411;28;40719;-71
2022/12/07 01:45:39;;;;;;;23.10;8.73;;;;;;;1.36;100.00;101215.34;2046447;28;35231;-71
2022/12/07 01:46:55;;;;;;;28.67;9.15;;;;;;;1.43;100.00;101219.88;2038127;29;34054;-72
2022/12/07 01:47:58;;;;;;;23.10;8.63;;;;;;;1.47;100.00;101227.03;2053974;28;38673;-71
2022/12/07 01:49:01;;;;;;;25.20;9.20;;;;;;;1.50;100.00;101223.53;2062131;28;41579;-71
2022/12/07 01:50:05;;;;;;;23.13;8.75;;;;;;;1.53;100.00;101224.50;2062917;28;31575;-71
2022/12/07 01:51:13;;;;;;;21.85;8.75;;;;;;;1.55;100.00;101221.00;2070796;28;30476;-71
2022/12/07 01:52:27;;;;;;;21.83;8.15;;;;;;;1.53;100.00;101207.78;2071449;28;38592;-71
2022/12/07 01:53:31;;;;;;;27.52;9.43;;;;;;;1.56;100.00;101205.16;2071431;28;31625;-71
2022/12/07 01:54:34;;;;;;;23.95;8.88;;;;;;;1.58;100.00;101200.84;2062343;28;28244;-70
2022/12/07 01:55:41;;;;;;;23.02;8.85;;;;;;;1.60;100.00;101198.19;2062882;28;32607;-71
2022/12/07 01:56:51;;;;;;;24.52;9.35;;;;;;;1.59;100.00;101193.81;2062386;28;35755;-71
2022/12/07 01:57:55;;;;;;;;;;;;;;;1.59;100.00;101185.88;2065181;28;31612;-71
2022/12/07 01:59:00;;;;;;;24.20;8.38;;;;;;;1.57;100.00;101192.88;2071747;28;19999;-71
2022/12/07 02:00:05;;;;;;;21.95;8.55;;;;;;;1.53;100.00;101190.19;2070758;28;36325;-71
2022/12/07 02:01:13;;;;;;;20.23;7.93;;;;;;;1.55;100.00;101191.97;2062454;28;20095;-71
2022/12/07 02:02:25;;;;;;;22.23;7.80;;;;;;;1.50;100.00;101187.47;2063738;28;33215;-71
2022/12/07 02:03:37;;;;;;;18.95;7.85;;;;;;;1.46;100.00;101190.06;2070628;28;33731;-71
2022/12/07 02:04:39;;;;;;;23.08;7.68;;;;;;;1.45;100.00;101183.00;2063337;28;20043;-71
2022/12/07 02:05:43;;;;;;;21.15;7.32;;;;;;;1.46;100.00;101188.28;2063689;28;32362;-71
2022/12/07 02:06:46;;;;;;;23.13;7.70;;;;;;;1.42;100.00;101178.56;2071355;28;31777;-71
2022/12/07 02:07:49;;;;;;;20.70;7.80;;;;;;;1.44;100.00;101181.22;2070932;28;30715;-71
2022/12/07 02:08:50;;;;;;;16.08;6.97;;;;;;;1.45;100.00;101188.25;2062519;28;35994;-70
2022/12/07 02:09:52;;;;;;;21.20;8.10;;;;;;;1.46;100.00;101184.78;2062735;28;30910;-71
2022/12/07 02:10:54;;;;;;;24.38;8.65;;;;;;;1.47;100.00;101186.53;2071702;28;30952;-71
2022/12/07 02:12:04;;;;;;;26.50;8.23;;;;;;;1.47;100.00;101182.19;2072965;28;20991;-71
2022/12/07 02:13:18;;;;;;;24.38;9.52;;;;;;;1.52;100.00;101175.19;2064148;28;30617;-71
2022/12/07 02:14:19;;;;;;;24.58;9.57;;;;;;;1.51;100.00;101172.56;2066757;28;33508;-71
2022/12/07 02:15:26;;;;;;;24.83;9.60;;;;;;;1.50;100.00;101176.94;2073028;28;20031;-71
2022/12/07 02:16:43;;;;;;;23.83;9.68;;;;;;;1.50;100.00;101169.00;2072436;28;33162;-71
2022/12/07 02:18:34;;;;;;;25.52;10.15;;;;;;;1.50;100.00;101168.13;2072374;28;36318;-71
2022/12/07 02:20:13;;;;;;;;;;;;;;;1.48;100.00;101169.88;2048566;28;34385;-70
2022/12/07 02:21:45;;;;;;;21.35;8.63;;;;;;;1.49;100.00;101177.81;2072900;28;37172;-71
2022/12/07 02:23:39;;;;;;;28.33;9.82;;;;;;;1.47;100.00;101176.91;2072021;28;38329;-71
2022/12/07 02:24:56;;;;;;;24.45;8.48;;;;;;;1.42;100.00;101172.38;2072801;28;27995;-70
2022/12/07 02:26:36;;;;;;;24.17;10.02;;;;;;;1.45;100.00;101178.59;2063162;28;39662;-70
2022/12/07 02:27:52;;;;;;;30.15;10.40;;;;;;;1.45;100.00;101168.03;2069083;28;39599;-71
2022/12/07 02:29:22;;;;;;;26.25;10.98;;;;;;;1.47;100.00;101174.25;2071937;28;37928;-70
2022/12/07 02:30:30;;;;;;;25.75;10.45;;;;;;;1.44;100.00;101160.13;2072625;28;33700;-70
2022/12/07 02:31:32;;;;;;;30.27;10.75;;;;;;;1.45;100.00;101165.41;2063777;28;39576;-71
2022/12/07 02:33:02;;;;;;;28.92;11.43;;;;;;;1.45;100.00;101159.25;2064394;28;28125;-70
2022/12/07 02:34:34;;;;;;;28.02;10.30;;;;;;;1.46;100.00;101142.56;2072406;28;37613;-71
2022/12/07 02:35:48;;;;;;;25.38;10.40;;;;;;;1.42;100.00;101138.97;2063867;28;34849;-71
2022/12/07 02:37:00;;;;;;;27.02;10.57;;;;;;;1.43;100.00;101147.78;2067230;28;34919;-71
2022/12/07 02:38:38;;;;;;;29.52;10.68;;;;;;;1.40;100.00;101140.72;2072449;28;36387;-70
2022/12/07 02:39:53;;;;;;;28.33;10.82;;;;;;;1.40;100.00;101139.81;2072378;28;37936;-69
2022/12/07 02:41:07;;;;;;;26.25;9.48;;;;;;;1.40;100.00;101148.63;2063723;28;30555;-70
2022/12/07 02:42:25;;;;;;;26.90;10.20;;;;;;;1.37;100.00;101143.28;2066997;28;37431;-70
2022/12/07 02:43:36;;;;;;;27.15;10.23;;;;;;;1.34;100.00;101148.50;2072827;28;38190;-70
2022/12/07 02:44:39;;;;;;;20.65;9.95;;;;;;;1.31;100.00;101145.78;2063771;28;33921;-71
2022/12/07 02:45:43;;;;;;;23.02;9.88;;;;;;;1.29;100.00;101144.88;2065410;28;20039;-71
2022/12/07 02:47:02;;;;;;;26.42;9.90;;;;;;;1.25;100.00;101149.22;2064114;28;35124;-70
2022/12/07 02:48:09;;;;;;;23.60;8.77;;;;;;;1.21;100.00;101152.66;2063933;28;36209;-71
2022/12/07 02:49:12;;;;;;;24.25;9.77;;;;;;;1.20;100.00;101153.50;2065753;28;34650;-71
2022/12/07 02:50:14;;;;;;;21.27;8.70;;;;;;;1.12;100.00;101148.09;2063802;28;20049;-71
2022/12/07 02:51:18;;;;;;;24.75;9.10;;;;;;;1.11;100.00;101145.44;2063934;28;27762;-71
2022/12/07 02:52:20;;;;;;;21.23;8.02;;;;;;;1.08;100.00;101140.13;2063715;28;34403;-70
2022/12/07 02:53:40;;;;;;;18.48;9.10;;;;;;;1.06;100.00;101142.72;2055201;28;41546;-70
2022/12/07 02:54:41;;;;;;;18.48;7.88;;;;;;;1.03;100.00;101147.06;2066351;28;37596;-70
2022/12/07 02:55:44;;;;;;;22.60;8.32;;;;;;;0.98;100.00;101143.44;2072068;28;36193;-70
2022/12/07 02:57:04;;;;;;;18.55;8.27;;;;;;;0.96;100.00;101148.66;2072511;28;30856;-71
2022/12/07 02:58:57;;;;;;;22.98;7.78;;;;;;;0.95;100.00;101142.53;2072531;28;30090;-71
2022/12/07 03:00:12;;;;;;;20.67;6.90;;;;;;;0.93;100.00;101148.59;2048390;28;31419;-71
2022/12/07 03:01:49;;;;;;;20.83;8.10;;;;;;;0.92;100.00;101138.94;2039000;28;29313;-70
2022/12/07 03:03:06;;;;;;;28.55;7.93;;;;;;;0.88;100.00;101147.63;2014316;28;39700;-70
2022/12/07 03:04:58;;;;;;;15.75;7.15;;;;;;;0.88;100.00;101147.63;2038083;29;34097;-71
2022/12/07 03:06:10;;;;;;;18.95;7.03;;;;;;;0.91;100.00;101142.41;2023026;29;32855;-70
2022/12/07 03:07:41;;;;;;;16.65;8.20;;;;;;;0.94;100.00;101151.28;2064878;28;38928;-71
2022/12/07 03:08:51;;;;;;;17.42;7.50;;;;;;;0.94;100.00;101137.22;2062837;28;37847;-71
2022/12/07 03:10:24;;;;;;;;;;;;;;;0.94;100.00;101143.38;2068258;28;35714;-71
2022/12/07 03:11:42;;;;;;;14.38;5.32;;;;;;;1.13;100.00;101149.91;2072596;28;35697;-70
2022/12/07 03:12:58;;;;;;;17.15;6.07;;;;;;;1.11;100.00;101142.78;2070947;28;39775;-71
2022/12/07 03:14:23;;;;;;;16.02;5.47;;;;;;;1.14;100.00;101140.22;2062980;28;20035;-71
2022/12/07 03:15:52;;;;;;;15.70;4.97;;;;;;;1.14;100.00;101138.47;2059974;28;32150;-71
2022/12/07 03:17:03;;;;;;;11.20;3.95;;;;;;;1.21;100.00;101130.69;2070291;28;20049;-70
2022/12/07 03:18:07;;;;;;;13.88;4.32;;;;;;;1.19;100.00;101127.13;2071361;28;40388;-70
2022/12/07 03:19:16;;;;;;;16.65;3.65;;;;;;;1.21;100.00;101126.28;2062794;28;30274;-70
2022/12/07 03:20:23;;;;;;;9.82;3.20;;;;;;;1.21;100.00;101126.28;2055904;28;33698;-70
2022/12/07 03:21:47;;;;;;;11.30;3.20;;;;;;;1.19;100.00;101127.13;2055892;28;36592;-69
2022/12/07 03:22:50;;;;;;;8.88;2.55;;;;;;;1.20;100.00;101128.91;2058603;28;20892;-70
2022/12/07 03:23:59;;;;;;;7.57;2.83;;;;;;;1.20;100.00;101128.91;2066673;28;27675;-71
2022/12/07 03:25:09;;;;;;;10.48;2.67;;;;;;;1.17;100.00;101135.03;2062687;28;37573;-70
2022/12/07 03:26:16;;;;;;;12.55;2.63;;;;;;;1.18;100.00;101135.91;2056398;28;37348;-70
2022/12/07 03:27:49;;;;;;;11.80;2.20;;;;;;;1.18;100.00;101135.91;2065056;28;26799;-71
2022/12/07 03:28:58;;;;;;;6.25;1.48;;;;;;;1.13;100.00;101134.06;2063282;28;29392;-71
2022/12/07 03:30:09;;;;;;;12.95;1.58;;;;;;;1.12;100.00;101132.28;2057833;28;31124;-71
2022/12/07 03:31:22;;;;;;;10.20;1.65;;;;;;;1.14;100.00;101133.19;2058175;28;20040;-71
2022/12/07 03:32:40;;;;;;;9.07;1.63;;;;;;;1.17;100.00;101137.66;2062897;28;40122;-70
2022/12/07 03:34:08;;;;;;;10.43;1.40;;;;;;;1.15;100.00;101139.38;2055574;28;29446;-70
2022/12/07 03:35:27;;;;;;;12.48;1.95;;;;;;;1.19;100.00;101135.94;2060913;28;21795;-71
2022/12/07 03:36:47;;;;;;;6.25;1.40;;;;;;;1.19;100.00;101140.31;2064070;28;32292;-71
2022/12/07 03:37:58;;;;;;;6.13;1.17;;;;;;;1.20;100.00;101140.31;2063965;28;37737;-71
2022/12/07 03:39:27;;;;;;;6.82;1.30;;;;;;;1.20;100.00;101140.31;2063289;28;36720;-71
2022/12/07 03:40:42;;;;;;;7.35;1.67;;;;;;;1.18;100.00;101141.16;2057258;28;32117;-71
2022/12/07 03:41:45;;;;;;;10.00;1.60;;;;;;;1.21;100.00;101131.56;2062944;28;33026;-71
2022/12/07 03:42:49;;;;;;;11.23;1.33;;;;;;;1.24;100.00;101130.72;2055030;28;34657;-69
2022/12/07 03:43:55;;;;;;;7.45;1.65;;;;;;;1.19;100.00;101133.28;2047953;28;30470;-71
2022/12/07 03:44:57;;;;;;;10.75;1.75;;;;;;;1.24;100.00;101133.34;2055858;28;36112;-71
2022/12/07 03:46:18;;;;;;;7.65;1.40;;;;;;;1.23;100.00;101139.50;2063584;28;27309;-71
2022/12/07 03:47:29;;;;;;;11.02;1.20;;;;;;;1.23;100.00;101136.88;2062753;28;36194;-71
2022/12/07 03:48:57;;;;;;;6.40;0.88;;;;;;;1.21;100.00;101130.69;2063957;28;21438;-71
2022/12/07 03:50:35;;;;;;;5.13;0.95;;;;;;;1.21;100.00;101135.97;2046542;28;30072;-71
2022/12/07 03:52:33;;;;;;;8.65;1.10;;;;;;;1.21;100.00;101138.59;2046534;28;33921;-71
2022/12/07 03:53:46;;;;;;;6.82;1.15;;;;;;;1.18;100.00;101139.41;2047857;28;34448;-71
2022/12/07 03:55:07;;;;;;;6.68;0.90;;;;;;;1.22;100.00;101140.34;2063448;28;31511;-71
2022/12/07 03:56:11;;;;;;;6.30;0.93;;;;;;;1.17;100.00;101136.75;2063436;28;43031;-71
2022/12/07 03:57:15;;;;;;;7.00;0.80;;;;;;;1.15;100.00;101131.47;2063871;28;31769;-71
2022/12/07 03:58:21;;;;;;;5.50;0.68;;;;;;;1.10;100.00;101138.41;2062710;28;31771;-70
2022/12/07 03:59:23;;;;;;;8.02;0.60;;;;;;;1.10;100.00;101141.03;2058531;28;39247;-71
2022/12/07 04:00:26;;;;;;;10.90;0.95;;;;;;;1.01;100.00;101131.19;2057808;28;39623;-71
2022/12/07 04:01:27;;;;;;;5.00;0.50;;;;;;;1.02;100.00;101138.22;2063348;28;31502;-71
2022/12/07 04:02:29;;;;;;;7.53;0.70;;;;;;;0.98;100.00;101130.25;2072171;28;20046;-71
2022/12/07 04:03:31;;;;;;;8.38;0.70;;;;;;;0.94;100.00;101138.09;2072372;28;32954;-71
2022/12/07 04:04:34;;;;;;;7.15;0.50;;;;;;;0.90;100.00;101145.94;2071427;28;37054;-71
2022/12/07 04:05:36;;;;;;;5.20;0.50;;;;;;;0.91;100.00;101145.03;2072145;28;24704;-71
2022/12/07 04:06:38;;;;;;;4.20;0.50;;;;;;;0.88;100.00;101137.06;2062684;28;39706;-71
2022/12/07 04:07:41;;;;;;;7.10;0.55;;;;;;;0.82;100.00;101137.84;2055298;28;36916;-71
2022/12/07 04:08:42;;;;;;;9.02;0.63;;;;;;;0.82;100.00;101145.75;2063059;28;38710;-71
2022/12/07 04:09:44;;;;;;;7.72;0.60;;;;;;;0.83;100.00;101149.28;2063106;28;35530;-71
2022/12/07 04:10:46;;;;;;;4.75;0.70;;;;;;;0.85;100.00;101142.31;2063440;28;32838;-71
2022/12/07 04:11:48;;;;;;;7.78;0.45;;;;;;;0.84;100.00;101140.50;2063555;28;20042;-69
2022/12/07 04:12:50;;;;;;;6.95;0.60;;;;;;;0.91;100.00;101142.41;2063178;28;32287;-71
2022/12/07 04:15:12;;;;;;;;;;;;;;;0.93;100.00;101143.31;2066735;28;26773;-70
2022/12/07 04:16:14;;;;;;;2.72;0.20;;;;;;;0.90;100.00;101146.81;2072199;28;20746;-70
2022/12/07 04:17:15;;;;;;;5.43;0.35;;;;;;;0.91;100.00;101151.19;2071607;28;39299;-71
2022/12/07 04:18:17;;;;;;;9.15;0.52;;;;;;;0.89;100.00;101141.50;2072027;28;29663;-71
2022/12/07 04:19:22;;;;;;;5.28;0.43;;;;;;;0.87;100.00;101138.81;2062929;28;24482;-71
2022/12/07 04:20:24;;;;;;;6.93;0.55;;;;;;;0.87;100.00;101143.22;2063417;28;30600;-71
2022/12/07 04:21:26;;;;;;;8.50;0.70;;;;;;;0.82;100.00;101144.88;2072374;28;20173;-71
2022/12/07 04:22:27;;;;;;;6.03;0.57;;;;;;;0.83;100.00;101138.75;2071682;28;35461;-70
2022/12/07 04:23:29;;;;;;;5.60;0.60;;;;;;;0.75;100.00;101142.13;2071790;28;34191;-71
2022/12/07 04:24:31;;;;;;;5.07;0.45;;;;;;;0.74;100.00;101144.72;2072482;28;20034;-71
2022/12/07 04:25:34;;;;;;;6.95;0.30;;;;;;;0.71;100.00;101144.66;2071560;28;32911;-71
2022/12/07 04:26:36;;;;;;;7.43;0.80;;;;;;;0.75;100.00;101142.13;2072393;28;27070;-71
2022/12/07 04:27:37;;;;;;;9.73;0.57;;;;;;;0.71;100.00;101142.91;2071615;28;29210;-71
2022/12/07 04:28:39;;;;;;;5.80;0.55;;;;;;;0.69;100.00;101144.63;2071344;28;38733;-72
2022/12/07 04:29:41;;;;;;;7.13;0.50;;;;;;;0.72;100.00;101143.81;2071379;28;32115;-71
2022/12/07 04:30:42;;;;;;;6.45;0.68;;;;;;;0.75;100.00;101151.75;2064346;28;27555;-71
2022/12/07 04:31:44;;;;;;;7.20;0.95;;;;;;;0.85;100.00;101155.47;2063769;28;37121;-71
2022/12/07 04:32:46;;;;;;;8.75;0.57;;;;;;;0.86;100.00;101157.25;2072425;28;20094;-72
2022/12/07 04:33:50;;;;;;;9.27;0.70;;;;;;;0.90;100.00;101156.47;2070751;28;31867;-70
2022/12/07 04:34:52;;;;;;;7.15;0.70;;;;;;;1.03;100.00;101153.19;2072282;28;20027;-71
2022/12/07 04:35:56;;;;;;;8.70;1.13;;;;;;;1.03;100.00;101153.19;2062852;28;29235;-71
2022/12/07 04:36:58;;;;;;;10.18;0.55;;;;;;;1.12;100.00;101148.09;2063329;28;31823;-71
2022/12/07 04:37:59;;;;;;;9.20;1.08;;;;;;;1.19;100.00;101143.84;2063022;28;20900;-72
2022/12/07 04:39:03;;;;;;;6.53;0.73;;;;;;;1.20;100.00;101150.00;2063551;28;25841;-70
2022/12/07 04:40:08;;;;;;;6.97;1.13;;;;;;;1.18;100.00;101146.44;2071204;28;29392;-71
2022/12/07 04:41:10;;;;;;;8.90;0.77;;;;;;;1.18;100.00;101146.44;2071679;28;28799;-71
2022/12/07 04:42:12;;;;;;;6.75;0.60;;;;;;;1.19;100.00;101148.25;2071652;28;36635;-71
2022/12/07 04:43:14;;;;;;;11.13;0.40;;;;;;;1.12;100.00;101148.09;2062638;28;30141;-70
2022/12/07 04:44:18;;;;;;;6.95;0.70;;;;;;;1.10;100.00;101148.94;2063296;28;23768;-71
2022/12/07 04:45:19;;;;;;;6.72;0.60;;;;;;;1.08;100.00;101151.53;2071566;28;28630;-71
2022/12/07 04:46:23;;;;;;;7.40;0.65;;;;;;;1.06;100.00;101144.44;2071607;28;31975;-68
2022/12/07 04:47:25;;;;;;;6.93;0.60;;;;;;;1.02;100.00;101145.25;2062618;28;36899;-70
2022/12/07 04:48:27;;;;;;;7.50;0.50;;;;;;;1.01;100.00;101146.13;2063800;28;31116;-70
2022/12/07 04:49:30;;;;;;;5.63;0.57;;;;;;;1.03;100.00;101142.66;2071559;28;35025;-70
2022/12/07 04:50:32;;;;;;;8.98;0.63;;;;;;;1.04;100.00;101140.91;2072375;28;20043;-71
2022/12/07 04:51:34;;;;;;;8.75;0.90;;;;;;;1.04;100.00;101136.53;2071378;28;29688;-70
2022/12/07 04:52:35;;;;;;;7.85;0.68;;;;;;;1.06;100.00;101132.19;2062753;28;28794;-72
2022/12/07 04:53:37;;;;;;;10.30;0.82;;;;;;;1.10;100.00;101134.00;2054919;28;36088;-71
2022/12/07 04:54:41;;;;;;;6.68;0.45;;;;;;;1.09;100.00;101133.97;2054909;28;33178;-72
2022/12/07 04:55:45;;;;;;;9.50;0.57;;;;;;;1.13;100.00;101133.16;2063398;28;37658;-70
2022/12/07 04:56:47;;;;;;;10.35;0.63;;;;;;;1.14;100.00;101129.69;2071493;28;31728;-70
2022/12/07 04:57:48;;;;;;;9.43;0.75;;;;;;;1.13;100.00;101134.06;2071581;28;34164;-70
2022/12/07 04:58:53;;;;;;;10.57;0.60;;;;;;;1.17;100.00;101129.75;2071580;28;29175;-70
2022/12/07 04:59:55;;;;;;;10.13;0.73;;;;;;;1.18;100.00;101131.50;2071122;28;40993;-70
2022/12/07 05:00:56;;;;;;;8.77;0.60;;;;;;;1.21;100.00;101130.69;2071700;28;33037;-71
2022/12/07 05:01:58;;;;;;;13.30;0.75;;;;;;;1.27;100.00;101120.22;2073350;28;33240;-70
2022/12/07 05:03:00;;;;;;;8.05;0.77;;;;;;;1.24;100.00;101122.81;2071421;28;37754;-71
2022/12/07 05:04:02;;;;;;;8.88;0.60;;;;;;;1.23;100.00;101123.69;2072309;28;20034;-70
2022/12/07 05:05:04;;;;;;;9.68;0.60;;;;;;;1.27;100.00;101125.50;2070633;28;33435;-71
2022/12/07 05:06:06;;;;;;;7.38;0.57;;;;;;;1.28;100.00;101125.53;2071255;28;31305;-70
2022/12/07 05:07:14;;;;;;;5.50;0.77;;;;;;;1.25;100.00;101135.16;2071759;28;29012;-70
2022/12/07 05:08:18;;;;;;;8.20;0.68;;;;;;;1.21;100.00;101121.00;2062683;28;34270;-70
2022/12/07 05:09:20;;;;;;;9.40;0.63;;;;;;;1.19;100.00;101125.38;2064239;28;20077;-70
2022/12/07 05:10:22;;;;;;;6.88;0.65;;;;;;;1.18;100.00;101117.44;2071797;28;38903;-70
2022/12/07 05:11:40;;;;;;;10.23;0.63;;;;;;;1.17;100.00;101121.84;2062627;28;39103;-70
2022/12/07 05:12:41;;;;;;;5.68;0.55;;;;;;;1.13;100.00;101123.53;2066497;28;20841;-70
2022/12/07 05:13:43;;;;;;;6.78;0.60;;;;;;;1.12;100.00;101121.72;2062674;28;34096;-72